sensor_id;sensor_type;location;lat;lon;timestamp;pressure;altitude;pressure_sealevel;temperature;humidity
28935;BME280;16044;52.726;-2.108;2022-11-20T00:01:23;99977.06;;;6.06;92.73
28935;BME280;16044;52.726;-2.108;2022-11-20T00:03:53;99978.22;;;6.03;92.86
28935;BME280;16044;52.726;-2.108;2022-11-20T00:06:22;99975.19;;;6.07;92.51
28935;BME280;16044;52.726;-2.108;2022-11-20T00:08:50;99972.69;;;6.05;92.79
28935;BME280;16044;52.726;-2.108;2022-11-20T00:11:19;99968.16;;;6.05;92.43
28935;BME280;16044;52.726;-2.108;2022-11-20T00:13:49;99968.16;;;6.05;92.64
28935;BME280;16044;52.726;-2.108;2022-11-20T00:16:19;99966.13;;;6.08;92.72
28935;BME280;16044;52.726;-2.108;2022-11-20T00:18:48;99963.13;;;6.11;92.23
28935;BME280;16044;52.726;-2.108;2022-11-20T00:21:18;99964.13;;;6.10;92.65
28935;BME280;16044;52.726;-2.108;2022-11-20T00:23:48;99958.75;;;6.10;92.49
28935;BME280;16044;52.726;-2.108;2022-11-20T00:26:18;99952.19;;;6.12;92.38
28935;BME280;16044;52.726;-2.108;2022-11-20T00:28:54;99954.03;;;6.12;92.43
28935;BME280;16044;52.726;-2.108;2022-11-20T00:31:22;99951.84;;;6.07;92.53
28935;BME280;16044;52.726;-2.108;2022-11-20T00:33:49;99941.91;;;6.08;92.66
28935;BME280;16044;52.726;-2.108;2022-11-20T00:36:21;99929.66;;;6.13;92.22
28935;BME280;16044;52.726;-2.108;2022-11-20T00:38:53;99936.03;;;6.12;92.37
28935;BME280;16044;52.726;-2.108;2022-11-20T00:41:22;99936.03;;;6.12;92.39
28935;BME280;16044;52.726;-2.108;2022-11-20T00:43:52;99922.13;;;6.17;92.17
28935;BME280;16044;52.726;-2.108;2022-11-20T00:46:21;99921.28;;;6.16;92.12
28935;BME280;16044;52.726;-2.108;2022-11-20T00:48:50;99915.03;;;6.16;92.35
28935;BME280;16044;52.726;-2.108;2022-11-20T00:51:19;99915.03;;;6.16;92.35
28935;BME280;16044;52.726;-2.108;2022-11-20T00:53:48;99909.66;;;6.16;92.40
28935;BME280;16044;52.726;-2.108;2022-11-20T00:56:17;99894.19;;;6.18;92.66
28935;BME280;16044;52.726;-2.108;2022-11-20T00:58:47;99886.47;;;6.15;92.60
28935;BME280;16044;52.726;-2.108;2022-11-20T01:01:23;99882.59;;;6.17;92.46
28935;BME280;16044;52.726;-2.108;2022-11-20T01:03:53;99870.31;;;6.15;92.74
28935;BME280;16044;52.726;-2.108;2022-11-20T01:08:58;99865.09;;;6.13;92.75
28935;BME280;16044;52.726;-2.108;2022-11-20T01:11:29;99863.25;;;6.14;92.79
28935;BME280;16044;52.726;-2.108;2022-11-20T01:13:59;99858.88;;;6.13;92.81
28935;BME280;16044;52.726;-2.108;2022-11-20T01:16:33;99858.00;;;6.12;92.82
28935;BME280;16044;52.726;-2.108;2022-11-20T01:19:04;99849.09;;;6.12;92.83
28935;BME280;16044;52.726;-2.108;2022-11-20T01:21:38;99841.03;;;6.12;93.12
28935;BME280;16044;52.726;-2.108;2022-11-20T01:24:08;99842.72;;;6.13;92.90
28935;BME280;16044;52.726;-2.108;2022-11-20T01:26:39;99837.31;;;6.04;93.75
28935;BME280;16044;52.726;-2.108;2022-11-20T01:29:13;99826.75;;;6.11;93.33
28935;BME280;16044;52.726;-2.108;2022-11-20T01:31:42;99823.22;;;6.11;93.62
28935;BME280;16044;52.726;-2.108;2022-11-20T01:34:12;99815.31;;;6.09;93.64
28935;BME280;16044;52.726;-2.108;2022-11-20T01:36:42;99801.00;;;6.09;93.98
28935;BME280;16044;52.726;-2.108;2022-11-20T01:39:18;99795.13;;;6.05;94.37
28935;BME280;16044;52.726;-2.108;2022-11-20T01:41:51;99787.06;;;6.05;94.69
28935;BME280;16044;52.726;-2.108;2022-11-20T01:44:54;99788.22;;;6.02;94.98
28935;BME280;16044;52.726;-2.108;2022-11-20T01:47:27;99775.44;;;6.04;94.97
28935;BME280;16044;52.726;-2.108;2022-11-20T01:52:59;99762.66;;;6.07;95.32
28935;BME280;16044;52.726;-2.108;2022-11-20T01:55:31;99763.00;;;6.03;95.63
28935;BME280;16044;52.726;-2.108;2022-11-20T01:58:02;99765.34;;;6.07;95.91
28935;BME280;16044;52.726;-2.108;2022-11-20T02:00:31;99752.09;;;6.05;95.98
28935;BME280;16044;52.726;-2.108;2022-11-20T02:03:05;99746.00;;;6.03;96.16
28935;BME280;16044;52.726;-2.108;2022-11-20T02:08:43;99739.78;;;6.02;96.87
28935;BME280;16044;52.726;-2.108;2022-11-20T02:11:10;99733.41;;;6.03;96.92
28935;BME280;16044;52.726;-2.108;2022-11-20T02:13:36;99726.34;;;6.02;97.13
28935;BME280;16044;52.726;-2.108;2022-11-20T02:16:22;99734.75;;;6.08;96.75
28935;BME280;16044;52.726;-2.108;2022-11-20T02:18:53;99718.63;;;6.08;97.05
28935;BME280;16044;52.726;-2.108;2022-11-20T02:21:39;99718.94;;;6.04;97.00
28935;BME280;16044;52.726;-2.108;2022-11-20T02:24:19;99721.63;;;6.04;97.10
28935;BME280;16044;52.726;-2.108;2022-11-20T02:27:10;99718.78;;;6.06;97.17
28935;BME280;16044;52.726;-2.108;2022-11-20T02:32:38;99701.28;;;6.02;98.02
28935;BME280;16044;52.726;-2.108;2022-11-20T02:35:37;99702.78;;;6.04;97.93
28935;BME280;16044;52.726;-2.108;2022-11-20T02:37:58;99689.00;;;6.08;98.05
28935;BME280;16044;52.726;-2.108;2022-11-20T02:40:28;99679.59;;;6.03;98.36
28935;BME280;16044;52.726;-2.108;2022-11-20T02:42:56;99670.50;;;6.04;98.13
28935;BME280;16044;52.726;-2.108;2022-11-20T02:45:24;99684.97;;;6.03;98.31
28935;BME280;16044;52.726;-2.108;2022-11-20T02:47:52;99669.69;;;6.04;98.83
28935;BME280;16044;52.726;-2.108;2022-11-20T02:50:19;99667.81;;;6.04;98.52
28935;BME280;16044;52.726;-2.108;2022-11-20T02:52:46;99677.25;;;6.00;99.05
28935;BME280;16044;52.726;-2.108;2022-11-20T02:55:13;99658.25;;;6.02;99.21
28935;BME280;16044;52.726;-2.108;2022-11-20T02:57:40;99664.97;;;6.06;99.19
28935;BME280;16044;52.726;-2.108;2022-11-20T03:00:10;99649.84;;;6.05;99.25
28935;BME280;16044;52.726;-2.108;2022-11-20T03:02:37;99646.97;;;6.07;99.51
28935;BME280;16044;52.726;-2.108;2022-11-20T03:05:04;99636.03;;;6.08;99.48
28935;BME280;16044;52.726;-2.108;2022-11-20T03:07:31;99620.06;;;6.07;99.56
28935;BME280;16044;52.726;-2.108;2022-11-20T03:09:58;99613.53;;;6.09;99.83
28935;BME280;16044;52.726;-2.108;2022-11-20T03:12:25;99609.81;;;6.10;99.58
28935;BME280;16044;52.726;-2.108;2022-11-20T03:14:52;99615.34;;;6.09;100.00
28935;BME280;16044;52.726;-2.108;2022-11-20T03:17:19;99611.31;;;6.04;100.00
28935;BME280;16044;52.726;-2.108;2022-11-20T03:19:46;99601.56;;;6.12;100.00
28935;BME280;16044;52.726;-2.108;2022-11-20T03:22:13;99592.50;;;6.13;99.87
28935;BME280;16044;52.726;-2.108;2022-11-20T03:24:40;99592.50;;;6.13;99.91
28935;BME280;16044;52.726;-2.108;2022-11-20T03:27:06;99581.38;;;6.16;100.00
28935;BME280;16044;52.726;-2.108;2022-11-20T03:29:35;99584.75;;;6.18;100.00
28935;BME280;16044;52.726;-2.108;2022-11-20T03:32:02;99574.84;;;6.18;100.00
28935;BME280;16044;52.726;-2.108;2022-11-20T03:34:29;99571.94;;;6.20;100.00
28935;BME280;16044;52.726;-2.108;2022-11-20T03:36:56;99564.56;;;6.22;100.00
28935;BME280;16044;52.726;-2.108;2022-11-20T03:39:22;99557.16;;;6.24;100.00
28935;BME280;16044;52.726;-2.108;2022-11-20T03:41:49;99552.78;;;6.23;100.00
28935;BME280;16044;52.726;-2.108;2022-11-20T03:44:17;99562.19;;;6.27;100.00
28935;BME280;16044;52.726;-2.108;2022-11-20T03:46:47;99554.78;;;6.29;100.00
28935;BME280;16044;52.726;-2.108;2022-11-20T03:49:14;99560.66;;;6.33;100.00
28935;BME280;16044;52.726;-2.108;2022-11-20T03:51:41;99551.59;;;6.34;100.00
28935;BME280;16044;52.726;-2.108;2022-11-20T03:54:08;99547.69;;;6.36;100.00
28935;BME280;16044;52.726;-2.108;2022-11-20T03:56:37;99538.25;;;6.40;100.00
28935;BME280;16044;52.726;-2.108;2022-11-20T03:59:06;99536.78;;;6.38;100.00
28935;BME280;16044;52.726;-2.108;2022-11-20T04:01:35;99533.53;;;6.42;100.00
28935;BME280;16044;52.726;-2.108;2022-11-20T04:04:04;99528.66;;;6.46;100.00
28935;BME280;16044;52.726;-2.108;2022-11-20T04:06:36;99529.97;;;6.50;100.00
28935;BME280;16044;52.726;-2.108;2022-11-20T04:09:05;99520.91;;;6.51;100.00
28935;BME280;16044;52.726;-2.108;2022-11-20T04:11:36;99527.63;;;6.55;100.00
28935;BME280;16044;52.726;-2.108;2022-11-20T04:14:05;99531.13;;;6.56;100.00
28935;BME280;16044;52.726;-2.108;2022-11-20T04:16:35;99533.00;;;6.63;100.00
28935;BME280;16044;52.726;-2.108;2022-11-20T04:19:05;99531.47;;;6.61;100.00
28935;BME280;16044;52.726;-2.108;2022-11-20T04:21:33;99534.47;;;6.66;100.00
28935;BME280;16044;52.726;-2.108;2022-11-20T04:24:00;99524.19;;;6.70;100.00
28935;BME280;16044;52.726;-2.108;2022-11-20T04:26:28;99523.38;;;6.69;100.00
28935;BME280;16044;52.726;-2.108;2022-11-20T04:28:56;99521.50;;;6.70;100.00
28935;BME280;16044;52.726;-2.108;2022-11-20T04:31:26;99512.88;;;6.74;100.00
28935;BME280;16044;52.726;-2.108;2022-11-20T04:33:54;99516.91;;;6.78;100.00
28935;BME280;16044;52.726;-2.108;2022-11-20T04:36:25;99511.72;;;6.77;100.00
28935;BME280;16044;52.726;-2.108;2022-11-20T04:38:57;99513.38;;;6.78;100.00
28935;BME280;16044;52.726;-2.108;2022-11-20T04:41:27;99518.25;;;6.82;100.00
28935;BME280;16044;52.726;-2.108;2022-11-20T04:43:58;99517.56;;;6.80;100.00
28935;BME280;16044;52.726;-2.108;2022-11-20T04:46:33;99526.69;;;6.79;100.00
28935;BME280;16044;52.726;-2.108;2022-11-20T04:49:06;99524.63;;;6.81;100.00
28935;BME280;16044;52.726;-2.108;2022-11-20T04:51:33;99527.34;;;6.81;100.00
28935;BME280;16044;52.726;-2.108;2022-11-20T04:54:00;99532.72;;;6.81;100.00
28935;BME280;16044;52.726;-2.108;2022-11-20T04:56:27;99525.66;;;6.80;100.00
28935;BME280;16044;52.726;-2.108;2022-11-20T04:58:54;99535.06;;;6.85;100.00
28935;BME280;16044;52.726;-2.108;2022-11-20T05:01:23;99536.78;;;6.77;100.00
28935;BME280;16044;52.726;-2.108;2022-11-20T05:03:51;99532.72;;;6.81;100.00
28935;BME280;16044;52.726;-2.108;2022-11-20T05:06:20;99541.81;;;6.80;100.00
28935;BME280;16044;52.726;-2.108;2022-11-20T05:08:48;99537.63;;;6.78;100.00
28935;BME280;16044;52.726;-2.108;2022-11-20T05:11:18;99546.03;;;6.83;100.00
28935;BME280;16044;52.726;-2.108;2022-11-20T05:13:47;99544.81;;;6.86;100.00
28935;BME280;16044;52.726;-2.108;2022-11-20T05:16:19;99557.63;;;6.83;100.00
28935;BME280;16044;52.726;-2.108;2022-11-20T05:18:51;99567.41;;;6.85;100.00
28935;BME280;16044;52.726;-2.108;2022-11-20T05:21:20;99560.97;;;6.86;100.00
28935;BME280;16044;52.726;-2.108;2022-11-20T05:23:47;99573.78;;;6.83;100.00
28935;BME280;16044;52.726;-2.108;2022-11-20T05:26:19;99573.78;;;6.83;100.00
28935;BME280;16044;52.726;-2.108;2022-11-20T05:28:48;99568.41;;;6.83;100.00
28935;BME280;16044;52.726;-2.108;2022-11-20T05:31:21;99579.84;;;6.86;100.00
28935;BME280;16044;52.726;-2.108;2022-11-20T05:33:53;99577.16;;;6.86;100.00
28935;BME280;16044;52.726;-2.108;2022-11-20T05:36:21;99578.19;;;6.85;100.00
28935;BME280;16044;52.726;-2.108;2022-11-20T05:38:48;99579.22;;;6.75;100.00
28935;BME280;16044;52.726;-2.108;2022-11-20T05:41:18;99570.78;;;6.78;100.00
28935;BME280;16044;52.726;-2.108;2022-11-20T05:43:47;99577.69;;;6.73;100.00
28935;BME280;16044;52.726;-2.108;2022-11-20T05:46:18;99573.69;;;6.69;100.00
28935;BME280;16044;52.726;-2.108;2022-11-20T05:48:53;99581.63;;;6.62;100.00
28935;BME280;16044;52.726;-2.108;2022-11-20T05:51:20;99573.91;;;6.51;100.00
28935;BME280;16044;52.726;-2.108;2022-11-20T05:53:47;99582.66;;;6.44;100.00
28935;BME280;16044;52.726;-2.108;2022-11-20T05:56:19;99576.31;;;6.37;100.00
28935;BME280;16044;52.726;-2.108;2022-11-20T05:58:47;99584.38;;;6.29;100.00
28935;BME280;16044;52.726;-2.108;2022-11-20T06:01:23;99580.03;;;6.20;100.00
28935;BME280;16044;52.726;-2.108;2022-11-20T06:03:53;99577.19;;;6.13;100.00
28935;BME280;16044;52.726;-2.108;2022-11-20T06:06:20;99574.00;;;6.10;100.00
28935;BME280;16044;52.726;-2.108;2022-11-20T06:08:48;99582.75;;;6.03;100.00
28935;BME280;16044;52.726;-2.108;2022-11-20T06:11:15;99581.41;;;5.99;100.00
28935;BME280;16044;52.726;-2.108;2022-11-20T06:13:43;99583.44;;;5.97;100.00
28935;BME280;16044;52.726;-2.108;2022-11-20T06:16:12;99584.56;;;5.95;100.00
28935;BME280;16044;52.726;-2.108;2022-11-20T06:18:40;99578.00;;;5.89;100.00
28935;BME280;16044;52.726;-2.108;2022-11-20T06:21:14;99577.34;;;5.87;100.00
28935;BME280;16044;52.726;-2.108;2022-11-20T06:23:42;99581.72;;;5.80;100.00
28935;BME280;16044;52.726;-2.108;2022-11-20T06:26:14;99577.53;;;5.77;100.00
28935;BME280;16044;52.726;-2.108;2022-11-20T06:28:43;99578.72;;;5.75;100.00
28935;BME280;16044;52.726;-2.108;2022-11-20T06:31:11;99588.09;;;5.71;100.00
28935;BME280;16044;52.726;-2.108;2022-11-20T06:33:40;99601.22;;;5.65;100.00
28935;BME280;16044;52.726;-2.108;2022-11-20T06:36:10;99599.88;;;5.61;100.00
28935;BME280;16044;52.726;-2.108;2022-11-20T06:38:39;99605.91;;;5.55;100.00
28935;BME280;16044;52.726;-2.108;2022-11-20T06:41:08;99610.94;;;5.50;100.00
28935;BME280;16044;52.726;-2.108;2022-11-20T06:43:37;99609.56;;;5.46;100.00
28935;BME280;16044;52.726;-2.108;2022-11-20T06:46:04;99604.03;;;5.39;99.57
28935;BME280;16044;52.726;-2.108;2022-11-20T06:48:31;99609.56;;;5.38;99.80
28935;BME280;16044;52.726;-2.108;2022-11-20T06:50:58;99602.50;;;5.37;100.00
28935;BME280;16044;52.726;-2.108;2022-11-20T06:53:25;99596.97;;;5.30;100.00
28935;BME280;16044;52.726;-2.108;2022-11-20T06:55:56;99604.88;;;5.32;100.00
28935;BME280;16044;52.726;-2.108;2022-11-20T06:58:27;99595.94;;;5.31;100.00
28935;BME280;16044;52.726;-2.108;2022-11-20T07:01:06;99599.81;;;5.28;100.00
28935;BME280;16044;52.726;-2.108;2022-11-20T07:03:37;99605.03;;;5.30;100.00
28935;BME280;16044;52.726;-2.108;2022-11-20T07:06:05;99605.34;;;5.27;100.00
28935;BME280;16044;52.726;-2.108;2022-11-20T07:08:33;99607.53;;;5.32;100.00
28935;BME280;16044;52.726;-2.108;2022-11-20T07:11:05;99604.34;;;5.28;100.00
28935;BME280;16044;52.726;-2.108;2022-11-20T07:13:33;99610.25;;;5.32;100.00
28935;BME280;16044;52.726;-2.108;2022-11-20T07:16:02;99620.63;;;5.35;100.00
28935;BME280;16044;52.726;-2.108;2022-11-20T07:18:31;99620.63;;;5.35;100.00
28935;BME280;16044;52.726;-2.108;2022-11-20T07:21:03;99623.81;;;5.30;100.00
28935;BME280;16044;52.726;-2.108;2022-11-20T07:23:31;99621.97;;;5.31;100.00
28935;BME280;16044;52.726;-2.108;2022-11-20T07:26:05;99620.78;;;5.25;100.00
28935;BME280;16044;52.726;-2.108;2022-11-20T07:28:34;99624.00;;;5.28;100.00
28935;BME280;16044;52.726;-2.108;2022-11-20T07:31:01;99627.34;;;5.31;100.00
28935;BME280;16044;52.726;-2.108;2022-11-20T07:33:28;99641.81;;;5.30;100.00
28935;BME280;16044;52.726;-2.108;2022-11-20T07:35:55;99635.75;;;5.27;100.00
28935;BME280;16044;52.726;-2.108;2022-11-20T07:38:25;99638.25;;;5.29;100.00
28935;BME280;16044;52.726;-2.108;2022-11-20T07:40:56;99636.59;;;5.28;100.00
28935;BME280;16044;52.726;-2.108;2022-11-20T07:43:24;99633.75;;;5.30;100.00
28935;BME280;16044;52.726;-2.108;2022-11-20T07:45:51;99643.81;;;5.27;100.00
28935;BME280;16044;52.726;-2.108;2022-11-20T07:48:18;99643.81;;;5.27;100.00
28935;BME280;16044;52.726;-2.108;2022-11-20T07:50:45;99640.59;;;5.24;100.00
28935;BME280;16044;52.726;-2.108;2022-11-20T07:53:12;99639.59;;;5.25;100.00
28935;BME280;16044;52.726;-2.108;2022-11-20T07:55:40;99644.13;;;5.24;100.00
28935;BME280;16044;52.726;-2.108;2022-11-20T07:58:07;99646.81;;;5.24;100.00
28935;BME280;16044;52.726;-2.108;2022-11-20T08:00:34;99640.09;;;5.28;100.00
28935;BME280;16044;52.726;-2.108;2022-11-20T08:03:03;99647.50;;;5.26;100.00
28935;BME280;16044;52.726;-2.108;2022-11-20T08:05:31;99655.25;;;5.30;100.00
28935;BME280;16044;52.726;-2.108;2022-11-20T08:07:57;99651.22;;;5.34;100.00
28935;BME280;16044;52.726;-2.108;2022-11-20T08:10:25;99664.31;;;5.37;100.00
28935;BME280;16044;52.726;-2.108;2022-11-20T08:12:52;99649.72;;;5.39;100.00
28935;BME280;16044;52.726;-2.108;2022-11-20T08:15:57;99654.25;;;5.39;100.00
28935;BME280;16044;52.726;-2.108;2022-11-20T08:18:24;99657.63;;;5.41;100.00
28935;BME280;16044;52.726;-2.108;2022-11-20T08:20:58;99653.91;;;5.42;100.00
28935;BME280;16044;52.726;-2.108;2022-11-20T08:23:28;99657.28;;;5.44;100.00
28935;BME280;16044;52.726;-2.108;2022-11-20T08:25:55;99661.31;;;5.48;100.00
28935;BME280;16044;52.726;-2.108;2022-11-20T08:28:22;99660.31;;;5.49;100.00
28935;BME280;16044;52.726;-2.108;2022-11-20T08:30:49;99663.69;;;5.51;100.00
28935;BME280;16044;52.726;-2.108;2022-11-20T08:33:17;99654.63;;;5.52;100.00
28935;BME280;16044;52.726;-2.108;2022-11-20T08:35:44;99662.03;;;5.50;100.00
28935;BME280;16044;52.726;-2.108;2022-11-20T08:38:12;99669.91;;;5.52;100.00
28935;BME280;16044;52.726;-2.108;2022-11-20T08:40:38;99662.84;;;5.51;100.00
28935;BME280;16044;52.726;-2.108;2022-11-20T08:43:05;99669.56;;;5.46;100.00
28935;BME280;16044;52.726;-2.108;2022-11-20T08:45:32;99668.53;;;5.47;100.00
28935;BME280;16044;52.726;-2.108;2022-11-20T08:48:04;99674.28;;;5.44;100.00
28935;BME280;16044;52.726;-2.108;2022-11-20T08:50:31;99665.34;;;5.44;100.00
28935;BME280;16044;52.726;-2.108;2022-11-20T08:53:05;99666.38;;;5.43;100.00
28935;BME280;16044;52.726;-2.108;2022-11-20T08:55:33;99664.50;;;5.43;100.00
28935;BME280;16044;52.726;-2.108;2022-11-20T08:58:06;99668.88;;;5.44;100.00
28935;BME280;16044;52.726;-2.108;2022-11-20T09:00:33;99669.72;;;5.45;100.00
28935;BME280;16044;52.726;-2.108;2022-11-20T09:03:01;99666.38;;;5.51;100.00
28935;BME280;16044;52.726;-2.108;2022-11-20T09:05:28;99681.16;;;5.55;100.00
28935;BME280;16044;52.726;-2.108;2022-11-20T09:07:56;99681.69;;;5.59;100.00
28935;BME280;16044;52.726;-2.108;2022-11-20T09:10:24;99674.47;;;5.68;100.00
28935;BME280;16044;52.726;-2.108;2022-11-20T09:12:53;99668.94;;;5.77;100.00
28935;BME280;16044;52.726;-2.108;2022-11-20T09:15:22;99675.50;;;5.91;100.00
28935;BME280;16044;52.726;-2.108;2022-11-20T09:17:54;99680.59;;;6.02;100.00
28935;BME280;16044;52.726;-2.108;2022-11-20T09:20:22;99675.25;;;6.11;100.00
28935;BME280;16044;52.726;-2.108;2022-11-20T09:22:49;99686.34;;;6.24;100.00
28935;BME280;16044;52.726;-2.108;2022-11-20T09:25:16;99687.31;;;6.31;100.00
28935;BME280;16044;52.726;-2.108;2022-11-20T09:27:43;99683.63;;;6.32;100.00
28935;BME280;16044;52.726;-2.108;2022-11-20T09:30:13;99671.50;;;6.36;100.00
28935;BME280;16044;52.726;-2.108;2022-11-20T09:32:44;99685.81;;;6.37;100.00
28935;BME280;16044;52.726;-2.108;2022-11-20T09:35:11;99695.41;;;6.39;100.00
28935;BME280;16044;52.726;-2.108;2022-11-20T09:37:38;99686.31;;;6.40;100.00
28935;BME280;16044;52.726;-2.108;2022-11-20T09:40:06;99677.25;;;6.41;100.00
28935;BME280;16044;52.726;-2.108;2022-11-20T09:54:47;99676.19;;;6.59;100.00
28935;BME280;16044;52.726;-2.108;2022-11-20T09:57:19;99681.56;;;6.67;100.00
28935;BME280;16044;52.726;-2.108;2022-11-20T09:59:56;99689.63;;;6.67;100.00
28935;BME280;16044;52.726;-2.108;2022-11-20T10:05:08;99678.88;;;6.75;100.00
28935;BME280;16044;52.726;-2.108;2022-11-20T10:07:52;99686.94;;;6.75;100.00
28935;BME280;16044;52.726;-2.108;2022-11-20T10:19:22;99682.53;;;6.91;100.00
28935;BME280;16044;52.726;-2.108;2022-11-20T10:25:14;99683.34;;;6.99;100.00
28935;BME280;16044;52.726;-2.108;2022-11-20T10:30:44;99679.63;;;7.00;99.94
28935;BME280;16044;52.726;-2.108;2022-11-20T10:36:22;99675.56;;;7.05;98.77
28935;BME280;16044;52.726;-2.108;2022-11-20T10:39:01;99671.72;;;7.07;98.56
28935;BME280;16044;52.726;-2.108;2022-11-20T10:41:34;99655.16;;;7.10;98.32
28935;BME280;16044;52.726;-2.108;2022-11-20T10:44:29;99656.88;;;7.11;98.39
28935;BME280;16044;52.726;-2.108;2022-11-20T10:47:20;99665.25;;;7.16;97.97
28935;BME280;16044;52.726;-2.108;2022-11-20T10:49:53;99668.97;;;7.15;97.97
28935;BME280;16044;52.726;-2.108;2022-11-20T11:00:33;99666.22;;;7.23;97.41
28935;BME280;16044;52.726;-2.108;2022-11-20T11:03:00;99675.63;;;7.28;97.17
28935;BME280;16044;52.726;-2.108;2022-11-20T11:05:37;99675.31;;;7.31;96.59
28935;BME280;16044;52.726;-2.108;2022-11-20T11:08:13;99682.88;;;7.35;96.47
28935;BME280;16044;52.726;-2.108;2022-11-20T11:10:54;99682.69;;;7.37;95.75
28935;BME280;16044;52.726;-2.108;2022-11-20T11:15:52;99683.66;;;7.44;94.96
28935;BME280;16044;52.726;-2.108;2022-11-20T11:21:03;99666.78;;;7.50;94.34
28935;BME280;16044;52.726;-2.108;2022-11-20T11:23:32;99659.81;;;7.56;94.15
28935;BME280;16044;52.726;-2.108;2022-11-20T11:26:03;99654.09;;;7.59;93.38
28935;BME280;16044;52.726;-2.108;2022-11-20T11:28:32;99647.97;;;7.65;93.77
28935;BME280;16044;52.726;-2.108;2022-11-20T11:30:59;99634.31;;;7.67;93.90
28935;BME280;16044;52.726;-2.108;2022-11-20T11:33:31;99637.66;;;7.69;93.80
28935;BME280;16044;52.726;-2.108;2022-11-20T11:36:04;99630.91;;;7.73;93.00
28935;BME280;16044;52.726;-2.108;2022-11-20T11:38:44;99632.03;;;7.78;92.87
28935;BME280;16044;52.726;-2.108;2022-11-20T11:41:20;99631.19;;;7.78;91.62
28935;BME280;16044;52.726;-2.108;2022-11-20T11:43:55;99625.56;;;7.88;91.29
28935;BME280;16044;52.726;-2.108;2022-11-20T11:46:54;99614.41;;;7.91;91.06
28935;BME280;16044;52.726;-2.108;2022-11-20T11:49:22;99624.84;;;7.94;91.01
28935;BME280;16044;52.726;-2.108;2022-11-20T11:54:37;99612.84;;;7.96;89.13
28935;BME280;16044;52.726;-2.108;2022-11-20T12:00:22;99623.03;;;8.09;89.26
28935;BME280;16044;52.726;-2.108;2022-11-20T12:03:14;99628.91;;;8.13;88.95
28935;BME280;16044;52.726;-2.108;2022-11-20T12:06:03;99626.13;;;8.21;87.33
28935;BME280;16044;52.726;-2.108;2022-11-20T12:11:45;99621.59;;;8.36;87.10
28935;BME280;16044;52.726;-2.108;2022-11-20T12:17:03;99628.94;;;8.51;85.12
28935;BME280;16044;52.726;-2.108;2022-11-20T12:19:33;99625.50;;;8.57;84.92
28935;BME280;16044;52.726;-2.108;2022-11-20T12:25:25;99625.13;;;8.60;85.00
28935;BME280;16044;52.726;-2.108;2022-11-20T12:30:28;99614.22;;;8.68;84.80
28935;BME280;16044;52.726;-2.108;2022-11-20T12:36:00;99611.53;;;8.68;84.07
28935;BME280;16044;52.726;-2.108;2022-11-20T12:45:14;99594.47;;;8.68;84.59
28935;BME280;16044;52.726;-2.108;2022-11-20T13:07:35;99606.47;;;8.65;84.65
28935;BME280;16044;52.726;-2.108;2022-11-20T13:10:03;99596.06;;;8.62;84.99
28935;BME280;16044;52.726;-2.108;2022-11-20T13:12:46;99604.34;;;8.61;84.85
28935;BME280;16044;52.726;-2.108;2022-11-20T13:15:35;99613.00;;;8.56;85.37
28935;BME280;16044;52.726;-2.108;2022-11-20T13:18:12;99595.94;;;8.55;85.74
28935;BME280;16044;52.726;-2.108;2022-11-20T13:20:44;99605.94;;;8.55;85.85
28935;BME280;16044;52.726;-2.108;2022-11-20T13:23:25;99603.59;;;8.52;86.17
28935;BME280;16044;52.726;-2.108;2022-11-20T13:26:23;99600.34;;;8.56;85.77
28935;BME280;16044;52.726;-2.108;2022-11-20T13:29:08;99601.94;;;8.51;86.49
28935;BME280;16044;52.726;-2.108;2022-11-20T13:31:42;99612.53;;;8.52;86.17
28935;BME280;16044;52.726;-2.108;2022-11-20T13:34:23;99623.31;;;8.52;86.00
28935;BME280;16044;52.726;-2.108;2022-11-20T13:36:57;99625.75;;;8.47;86.46
28935;BME280;16044;52.726;-2.108;2022-11-20T13:39:32;99619.50;;;8.47;86.80
28935;BME280;16044;52.726;-2.108;2022-11-20T13:42:03;99627.66;;;8.38;87.07
28935;BME280;16044;52.726;-2.108;2022-11-20T13:44:54;99631.94;;;8.33;86.72
28935;BME280;16044;52.726;-2.108;2022-11-20T13:47:27;99639.63;;;8.21;87.33
28935;BME280;16044;52.726;-2.108;2022-11-20T13:49:57;99640.41;;;8.07;87.62
28935;BME280;16044;52.726;-2.108;2022-11-20T13:55:54;99638.06;;;7.89;88.95
28935;BME280;16044;52.726;-2.108;2022-11-20T14:01:31;99644.53;;;7.79;89.14
28935;BME280;16044;52.726;-2.108;2022-11-20T14:03:59;99654.50;;;7.71;90.13
28935;BME280;16044;52.726;-2.108;2022-11-20T14:06:40;99655.28;;;7.56;90.34
28935;BME280;16044;52.726;-2.108;2022-11-20T14:09:24;99652.34;;;7.43;89.28
28935;BME280;16044;52.726;-2.108;2022-11-20T14:11:53;99656.59;;;7.37;89.68
28935;BME280;16044;52.726;-2.108;2022-11-20T14:14:22;99653.91;;;7.29;89.41
28935;BME280;16044;52.726;-2.108;2022-11-20T14:16:51;99655.44;;;7.23;88.92
28935;BME280;16044;52.726;-2.108;2022-11-20T14:19:27;99651.47;;;7.11;89.07
28935;BME280;16044;52.726;-2.108;2022-11-20T14:22:19;99640.69;;;7.11;89.03
28935;BME280;16044;52.726;-2.108;2022-11-20T14:24:49;99637.34;;;7.09;89.15
28935;BME280;16044;52.726;-2.108;2022-11-20T14:27:37;99647.09;;;7.10;89.66
28935;BME280;16044;52.726;-2.108;2022-11-20T14:30:15;99632.28;;;7.06;90.29
28935;BME280;16044;52.726;-2.108;2022-11-20T14:32:47;99640.38;;;7.06;90.51
28935;BME280;16044;52.726;-2.108;2022-11-20T14:35:28;99619.97;;;7.12;90.96
28935;BME280;16044;52.726;-2.108;2022-11-20T14:37:56;99626.50;;;7.17;91.25
28935;BME280;16044;52.726;-2.108;2022-11-20T14:40:32;99635.22;;;7.28;90.64
28935;BME280;16044;52.726;-2.108;2022-11-20T14:43:25;99633.66;;;7.33;90.80
28935;BME280;16044;52.726;-2.108;2022-11-20T14:45:59;99625.06;;;7.38;90.74
28935;BME280;16044;52.726;-2.108;2022-11-20T14:48:43;99622.19;;;7.39;90.13
28935;BME280;16044;52.726;-2.108;2022-11-20T14:51:24;99625.78;;;7.32;89.12
28935;BME280;16044;52.726;-2.108;2022-11-20T14:53:53;99628.09;;;7.35;89.02
28935;BME280;16044;52.726;-2.108;2022-11-20T14:56:22;99621.44;;;7.22;89.13
28935;BME280;16044;52.726;-2.108;2022-11-20T14:58:57;99617.88;;;7.22;88.57
28935;BME280;16044;52.726;-2.108;2022-11-20T15:01:29;99624.66;;;7.18;88.69
28935;BME280;16044;52.726;-2.108;2022-11-20T15:06:28;99615.81;;;7.01;88.95
28935;BME280;16044;52.726;-2.108;2022-11-20T15:08:57;99622.22;;;7.00;88.71
28935;BME280;16044;52.726;-2.108;2022-11-20T15:11:30;99619.06;;;6.88;88.69